createdAt,value
2023-01-27T00:01:51.725Z,102878.13
2023-01-27T00:03:53.622Z,102877.09
2023-01-27T00:05:55.528Z,102872.44
2023-01-27T00:07:58.793Z,102872.19
2023-01-27T00:10:00.755Z,102872.44
2023-01-27T00:12:12.357Z,102872.63
2023-01-27T00:14:14.212Z,102873.13
2023-01-27T00:16:16.082Z,102878.56
2023-01-27T00:18:17.912Z,102873.47
2023-01-27T00:20:29.312Z,102867.56
2023-01-27T00:22:41.387Z,102871.31
2023-01-27T00:24:43.636Z,102872.19
2023-01-27T00:26:45.577Z,102868.41
2023-01-27T00:28:48.598Z,102867.31
2023-01-27T00:30:50.881Z,102859.81
2023-01-27T00:33:02.445Z,102857.47
2023-01-27T00:35:05.462Z,102851.84
2023-01-27T00:37:07.993Z,102858.41
2023-01-27T00:39:12.231Z,102856.38
2023-01-27T00:41:21.431Z,102859.94
2023-01-27T00:43:23.279Z,102854.81
2023-01-27T00:45:34.670Z,102852.34
2023-01-27T00:47:36.513Z,102846.81
2023-01-27T00:49:38.438Z,102839.25
2023-01-27T00:51:40.333Z,102837.47
2023-01-27T00:53:42.447Z,102842.69
2023-01-27T00:55:44.458Z,102836.00
2023-01-27T00:57:46.847Z,102834.38
2023-01-27T00:59:48.670Z,102837.09
2023-01-27T01:01:50.603Z,102832.25
2023-01-27T01:03:52.494Z,102834.81
2023-01-27T01:05:54.368Z,102833.34
2023-01-27T01:07:56.326Z,102831.47
2023-01-27T01:09:58.197Z,102829.81
2023-01-27T01:12:00.024Z,102834.34
2023-01-27T01:14:01.857Z,102826.34
2023-01-27T01:16:06.853Z,102821.63
2023-01-27T01:18:10.815Z,102825.88
2023-01-27T01:20:13.412Z,102826.25
2023-01-27T01:22:15.417Z,102827.03
2023-01-27T01:24:17.264Z,102824.97
2023-01-27T01:26:19.128Z,102824.69
2023-01-27T01:28:21.467Z,102822.41
2023-01-27T01:30:26.494Z,102811.97
2023-01-27T01:32:28.363Z,102809.72
2023-01-27T01:34:30.222Z,102818.28
2023-01-27T01:36:32.121Z,102815.44
2023-01-27T01:38:34.417Z,102813.66
2023-01-27T01:40:41.839Z,102811.09
2023-01-27T01:42:51.361Z,102812.88
2023-01-27T01:45:22.518Z,102826.84
2023-01-27T01:47:24.591Z,102822.41
2023-01-27T01:49:35.238Z,102813.56
2023-01-27T01:51:42.032Z,102814.34
2023-01-27T01:53:50.713Z,102815.53
2023-01-27T01:55:53.037Z,102810.09
2023-01-27T01:57:54.889Z,102810.66
2023-01-27T02:00:02.117Z,102802.78
2023-01-27T02:02:08.407Z,102808.34
2023-01-27T02:04:18.491Z,102802.09
2023-01-27T02:06:21.536Z,102798.88
2023-01-27T02:08:31.011Z,102796.13
2023-01-27T02:10:34.801Z,102790.34
2023-01-27T02:12:36.677Z,102785.44
2023-01-27T02:14:40.276Z,102797.81
2023-01-27T02:16:42.307Z,102791.34
2023-01-27T02:18:44.486Z,102788.66
2023-01-27T02:20:48.676Z,102786.38
2023-01-27T02:22:56.632Z,102784.22
2023-01-27T02:25:11.020Z,102793.69
2023-01-27T02:27:14.412Z,102788.09
2023-01-27T02:29:16.869Z,102799.13
2023-01-27T02:31:18.769Z,102794.91
2023-01-27T02:33:20.722Z,102792.09
2023-01-27T02:35:32.729Z,102790.34
2023-01-27T02:37:36.007Z,102790.13
2023-01-27T02:39:43.099Z,102787.47
2023-01-27T02:41:56.219Z,102784.44
2023-01-27T02:43:58.132Z,102782.91
2023-01-27T02:45:59.973Z,102781.13
2023-01-27T02:48:01.875Z,102777.97
2023-01-27T02:50:03.952Z,102783.34
2023-01-27T02:52:05.976Z,102789.34
2023-01-27T02:54:07.983Z,102793.59
2023-01-27T02:56:09.853Z,102781.66
2023-01-27T02:58:12.097Z,102783.88
2023-01-27T03:00:14.131Z,102786.78
2023-01-27T03:02:23.144Z,102784.75
2023-01-27T03:04:25.181Z,102788.22
2023-01-27T03:06:27.068Z,102794.00
2023-01-27T03:08:28.862Z,102795.69
2023-01-27T03:10:30.766Z,102790.78
2023-01-27T03:12:32.667Z,102793.13
2023-01-27T03:14:44.822Z,102794.00
2023-01-27T03:16:56.715Z,102795.69
2023-01-27T03:18:58.552Z,102796.34
2023-01-27T03:21:03.013Z,102799.59
2023-01-27T03:23:05.015Z,102805.50
2023-01-27T03:25:07.637Z,102801.69
2023-01-27T03:27:09.590Z,102802.47
2023-01-27T03:29:21.647Z,102813.38
2023-01-27T03:31:23.566Z,102812.59
2023-01-27T03:33:25.406Z,102808.84
2023-01-27T03:35:34.248Z,102811.50
2023-01-27T03:37:45.301Z,102807.25
2023-01-27T03:39:56.574Z,102802.63
2023-01-27T03:42:08.747Z,102806.38
2023-01-27T03:44:20.597Z,102802.94
2023-01-27T03:46:22.555Z,102801.34
2023-01-27T03:48:24.661Z,102810.72
2023-01-27T03:50:37.496Z,102802.34
2023-01-27T03:52:40.266Z,102788.47
2023-01-27T03:54:42.056Z,102791.91
2023-01-27T03:56:44.228Z,102790.81
2023-01-27T03:58:46.261Z,102783.94
2023-01-27T04:00:52.323Z,102782.34
2023-01-27T04:03:05.027Z,102786.69
2023-01-27T04:05:17.716Z,102784.81
2023-01-27T04:07:20.196Z,102790.63
2023-01-27T04:09:26.657Z,102788.72
2023-01-27T04:11:39.296Z,102781.81
2023-01-27T04:13:41.116Z,102786.84
2023-01-27T04:15:42.971Z,102785.28
2023-01-27T04:17:44.706Z,102787.13
2023-01-27T04:19:47.510Z,102788.06
2023-01-27T04:21:50.049Z,102783.94
2023-01-27T04:23:52.996Z,102786.59
2023-01-27T04:25:56.605Z,102786.59
2023-01-27T04:27:58.571Z,102782.81
2023-01-27T04:30:00.625Z,102787.56
2023-01-27T04:32:04.572Z,102786.16
2023-01-27T04:34:06.881Z,102781.91
2023-01-27T04:36:09.221Z,102774.97
2023-01-27T04:38:12.908Z,102781.41
2023-01-27T04:40:15.473Z,102779.31
2023-01-27T04:42:17.263Z,102778.63
2023-01-27T04:44:22.205Z,102786.69
2023-01-27T04:46:24.088Z,102780.09
2023-01-27T04:48:25.860Z,102772.13
2023-01-27T04:50:27.661Z,102777.06
2023-01-27T04:52:29.560Z,102780.00
2023-01-27T04:54:31.591Z,102785.31
2023-01-27T04:56:36.964Z,102786.75
2023-01-27T04:58:38.744Z,102778.53
2023-01-27T05:00:40.806Z,102783.19
2023-01-27T05:02:42.644Z,102783.28
2023-01-27T05:04:44.543Z,102790.88
2023-01-27T05:06:46.455Z,102781.41
2023-01-27T05:08:48.865Z,102791.09
2023-01-27T05:10:52.582Z,102792.19
2023-01-27T05:12:54.385Z,102794.91
2023-01-27T05:14:56.381Z,102791.41
2023-01-27T05:16:58.397Z,102803.84
2023-01-27T05:19:00.324Z,102799.88
2023-01-27T05:21:02.952Z,102796.63
2023-01-27T05:23:14.263Z,102795.53
2023-01-27T05:25:16.502Z,102794.56
2023-01-27T05:27:18.617Z,102799.66
2023-01-27T05:29:20.375Z,102803.13
2023-01-27T05:31:25.021Z,102801.00
2023-01-27T05:33:26.906Z,102783.44
2023-01-27T05:35:28.687Z,102799.97
2023-01-27T05:37:30.822Z,102797.31
2023-01-27T05:39:32.578Z,102795.34
2023-01-27T05:41:35.029Z,102799.56
2023-01-27T05:43:38.811Z,102793.41
2023-01-27T05:45:40.681Z,102793.63
2023-01-27T05:47:42.607Z,102796.63
2023-01-27T05:49:44.342Z,102792.94
2023-01-27T05:51:46.161Z,102793.03
2023-01-27T05:53:48.177Z,102785.38
2023-01-27T05:55:51.132Z,102786.63
2023-01-27T05:57:52.937Z,102787.03
2023-01-27T05:59:54.714Z,102797.38
2023-01-27T06:01:56.635Z,102793.63
2023-01-27T06:03:59.042Z,102794.63
2023-01-27T06:06:01.032Z,102794.63
2023-01-27T06:08:03.068Z,102788.41
2023-01-27T06:10:06.192Z,102788.81
2023-01-27T06:12:08.242Z,102795.84
2023-01-27T06:14:10.131Z,102784.81
2023-01-27T06:16:14.143Z,102783.16
2023-01-27T06:18:17.628Z,102787.47
2023-01-27T06:20:19.407Z,102786.78
2023-01-27T06:22:21.335Z,102787.56
2023-01-27T06:24:24.258Z,102785.91
2023-01-27T06:26:26.394Z,102789.94
2023-01-27T06:28:29.673Z,102785.91
2023-01-27T06:30:32.300Z,102780.69
2023-01-27T06:32:36.710Z,102784.03
2023-01-27T06:34:38.685Z,102787.13
2023-01-27T06:36:40.463Z,102785.31
2023-01-27T06:38:43.120Z,102783.44
2023-01-27T06:40:44.971Z,102779.44
2023-01-27T06:42:46.773Z,102775.22
2023-01-27T06:44:48.630Z,102777.00
2023-01-27T06:46:51.259Z,102786.25
2023-01-27T06:48:53.181Z,102778.56
2023-01-27T06:50:56.181Z,102781.88
2023-01-27T06:53:03.106Z,102778.66
2023-01-27T06:55:05.786Z,102779.53
2023-01-27T06:57:10.050Z,102779.44
2023-01-27T06:59:13.875Z,102779.75
2023-01-27T07:01:15.828Z,102782.91
2023-01-27T07:03:18.232Z,102779.91
2023-01-27T07:05:20.314Z,102782.66
2023-01-27T07:07:22.386Z,102774.31
2023-01-27T07:09:24.220Z,102775.09
2023-01-27T07:11:26.066Z,102785.44
2023-01-27T07:13:27.951Z,102787.22
2023-01-27T07:15:30.965Z,102782.91
2023-01-27T07:17:32.952Z,102789.97
2023-01-27T07:19:35.290Z,102792.34
2023-01-27T07:21:37.862Z,102795.88
2023-01-27T07:23:39.767Z,102796.31
2023-01-27T07:25:42.495Z,102796.78
2023-01-27T07:27:44.347Z,102797.66
2023-01-27T07:29:46.216Z,102795.09
2023-01-27T07:31:50.796Z,102799.63
2023-01-27T07:33:54.129Z,102801.00
2023-01-27T07:35:56.101Z,102804.75
2023-01-27T07:37:58.461Z,102812.44
2023-01-27T07:40:00.305Z,102812.75
2023-01-27T07:42:02.199Z,102817.88
2023-01-27T07:44:04.538Z,102815.47
2023-01-27T07:46:06.596Z,102813.31
2023-01-27T07:48:09.413Z,102810.09
2023-01-27T07:50:12.884Z,102805.63
2023-01-27T07:52:14.916Z,102810.41
2023-01-27T07:54:17.557Z,102813.66
2023-01-27T07:56:19.452Z,102811.28
2023-01-27T07:58:21.346Z,102816.22
2023-01-27T08:00:23.891Z,102811.00
2023-01-27T08:02:28.577Z,102811.38
2023-01-27T08:04:35.217Z,102814.06
2023-01-27T08:06:42.028Z,102815.88
2023-01-27T08:08:43.956Z,102811.28
2023-01-27T08:10:49.386Z,102804.50
2023-01-27T08:12:51.315Z,102818.09
2023-01-27T08:14:53.257Z,102819.53
2023-01-27T08:16:55.192Z,102812.41
2023-01-27T08:18:57.191Z,102819.97
2023-01-27T08:21:01.220Z,102827.03
2023-01-27T08:23:03.054Z,102821.22
2023-01-27T08:25:05.503Z,102826.34
2023-01-27T08:27:08.357Z,102827.22
2023-01-27T08:29:10.523Z,102822.00
2023-01-27T08:31:15.161Z,102832.63
2023-01-27T08:33:17.106Z,102831.44
2023-01-27T08:35:19.107Z,102834.78
2023-01-27T08:37:21.015Z,102833.66
2023-01-27T08:39:23.023Z,102839.66
2023-01-27T08:41:26.993Z,102839.13
2023-01-27T08:43:28.892Z,102841.34
2023-01-27T08:45:31.228Z,102842.09
2023-01-27T08:47:33.297Z,102848.34
2023-01-27T08:49:35.197Z,102834.06
2023-01-27T08:51:37.126Z,102841.53
2023-01-27T08:53:39.170Z,102841.19
2023-01-27T08:55:41.191Z,102841.75
2023-01-27T08:57:43.475Z,102838.97
2023-01-27T08:59:46.327Z,102835.63
2023-01-27T09:01:48.362Z,102845.88
2023-01-27T09:03:50.621Z,102835.53
2023-01-27T09:05:52.645Z,102842.72
2023-01-27T09:07:54.916Z,102843.16
2023-01-27T09:10:12.701Z,102843.94
2023-01-27T09:12:16.105Z,102847.84
2023-01-27T09:14:18.931Z,102858.72
2023-01-27T09:16:20.921Z,102850.47
2023-01-27T09:18:22.974Z,102850.03
2023-01-27T09:20:24.976Z,102848.88
2023-01-27T09:22:29.896Z,102845.13
2023-01-27T09:24:31.782Z,102858.03
2023-01-27T09:26:33.819Z,102864.06
2023-01-27T09:28:35.746Z,102858.56
2023-01-27T09:30:39.975Z,102857.47
2023-01-27T09:32:43.200Z,102864.47
2023-01-27T09:34:45.205Z,102852.63
2023-01-27T09:36:52.082Z,102852.19
2023-01-27T09:39:01.790Z,102855.72
2023-01-27T09:41:15.062Z,102848.94
2023-01-27T09:43:33.336Z,102849.13
2023-01-27T09:45:47.526Z,102847.88
2023-01-27T09:48:03.916Z,102854.16
2023-01-27T09:50:18.978Z,102847.41
2023-01-27T09:52:21.315Z,102845.22
2023-01-27T09:54:42.983Z,102840.41
2023-01-27T09:56:55.896Z,102843.06
2023-01-27T09:59:08.243Z,102836.38
2023-01-27T10:01:19.809Z,102842.19
2023-01-27T10:03:40.284Z,102848.41
2023-01-27T10:05:49.240Z,102851.06
2023-01-27T10:08:13.602Z,102854.31
2023-01-27T10:10:32.611Z,102851.06
2023-01-27T10:12:48.221Z,102854.50
2023-01-27T10:14:51.701Z,102851.47
2023-01-27T10:17:03.998Z,102859.84
2023-01-27T10:19:17.297Z,102866.38
2023-01-27T10:21:41.050Z,102868.94
2023-01-27T10:23:53.922Z,102868.34
2023-01-27T10:26:15.623Z,102871.09
2023-01-27T10:28:23.087Z,102877.00
2023-01-27T10:30:35.975Z,102867.25
2023-01-27T10:32:51.747Z,102868.31
2023-01-27T10:35:11.564Z,102877.13
2023-01-27T10:37:23.916Z,102865.38
2023-01-27T10:39:44.305Z,102873.84
2023-01-27T10:41:54.271Z,102868.91
2023-01-27T10:44:00.601Z,102863.88
2023-01-27T10:46:17.576Z,102857.84
2023-01-27T10:48:36.603Z,102860.41
2023-01-27T10:50:43.448Z,102862.59
2023-01-27T10:52:54.897Z,102860.03
2023-01-27T10:55:15.164Z,102855.19
2023-01-27T10:57:25.457Z,102859.13
2023-01-27T10:59:45.228Z,102858.41
2023-01-27T11:02:00.176Z,102853.09
2023-01-27T11:04:04.809Z,102850.94
2023-01-27T11:06:14.844Z,102854.66
2023-01-27T11:08:19.936Z,102843.22
2023-01-27T11:10:23.137Z,102845.44
2023-01-27T11:12:33.878Z,102849.28
2023-01-27T11:14:46.940Z,102847.91
2023-01-27T11:16:54.999Z,102840.31
2023-01-27T11:19:04.358Z,102854.28
2023-01-27T11:21:09.717Z,102847.38
2023-01-27T11:23:26.735Z,102848.28
2023-01-27T11:25:45.186Z,102846.13
2023-01-27T11:28:07.143Z,102844.34
2023-01-27T11:30:19.935Z,102841.97
2023-01-27T11:32:39.145Z,102838.41
2023-01-27T11:34:45.629Z,102831.28
2023-01-27T11:36:49.887Z,102835.41
2023-01-27T11:38:54.627Z,102825.25
2023-01-27T11:40:56.577Z,102817.63
2023-01-27T11:43:00.316Z,102823.91
2023-01-27T11:45:02.957Z,102807.13
2023-01-27T11:47:07.563Z,102809.94
2023-01-27T11:49:10.577Z,102812.44
2023-01-27T11:51:23.176Z,102802.69
2023-01-27T11:53:36.878Z,102814.50
2023-01-27T11:55:42.662Z,102809.44
2023-01-27T11:57:51.498Z,102813.69
2023-01-27T12:00:01.229Z,102803.50
2023-01-27T12:02:14.292Z,102802.97
2023-01-27T12:04:26.161Z,102813.78
2023-01-27T12:06:34.012Z,102812.72
2023-01-27T12:08:47.220Z,102806.88
2023-01-27T12:10:49.299Z,102808.03
2023-01-27T12:12:51.496Z,102804.38
2023-01-27T12:14:57.984Z,102796.59
2023-01-27T12:17:04.154Z,102801.09
2023-01-27T12:19:21.567Z,102798.09
2023-01-27T12:21:37.076Z,102803.88
2023-01-27T12:23:47.962Z,102805.19
2023-01-27T12:26:00.416Z,102801.09
2023-01-27T12:28:05.216Z,102801.19
2023-01-27T12:30:18.481Z,102798.63
2023-01-27T12:32:27.758Z,102803.16
2023-01-27T12:34:38.029Z,102796.31
2023-01-27T12:36:42.521Z,102788.94
2023-01-27T12:38:51.877Z,102788.69
2023-01-27T12:41:04.825Z,102788.50
2023-01-27T12:43:12.116Z,102790.31
2023-01-27T12:45:27.139Z,102788.25
2023-01-27T12:47:30.585Z,102792.00
2023-01-27T12:49:37.012Z,102790.72
2023-01-27T12:51:45.195Z,102793.84
2023-01-27T12:53:49.779Z,102794.09
2023-01-27T12:55:54.641Z,102787.91
2023-01-27T12:57:56.709Z,102796.69
2023-01-27T12:59:59.181Z,102795.06
2023-01-27T13:02:19.853Z,102789.16
2023-01-27T13:04:25.497Z,102792.25
2023-01-27T13:06:37.777Z,102783.22
2023-01-27T13:08:41.862Z,102792.50
2023-01-27T13:10:54.197Z,102781.97
2023-01-27T13:12:58.985Z,102782.31
2023-01-27T13:15:15.441Z,102786.22
2023-01-27T13:17:36.544Z,102780.38
2023-01-27T13:19:43.541Z,102781.72
2023-01-27T13:21:50.062Z,102779.91
2023-01-27T13:23:54.186Z,102773.53
2023-01-27T13:26:11.720Z,102770.72
2023-01-27T13:28:20.959Z,102771.78
2023-01-27T13:30:29.294Z,102773.63
2023-01-27T13:32:36.351Z,102777.19
2023-01-27T13:34:50.871Z,102772.06
2023-01-27T13:37:07.606Z,102771.25
2023-01-27T13:39:22.022Z,102769.75
2023-01-27T13:41:37.472Z,102766.38
2023-01-27T13:43:48.459Z,102773.28
2023-01-27T13:45:51.438Z,102774.97
2023-01-27T13:48:03.502Z,102775.25
2023-01-27T13:50:19.664Z,102766.38
2023-01-27T13:52:21.641Z,102776.06
2023-01-27T13:54:25.562Z,102779.75
2023-01-27T13:56:37.819Z,102767.53
2023-01-27T13:58:48.077Z,102775.94
2023-01-27T14:00:54.497Z,102773.47
2023-01-27T14:03:09.596Z,102778.63
2023-01-27T14:05:28.351Z,102777.81
2023-01-27T14:07:39.819Z,102780.19
2023-01-27T14:10:03.778Z,102773.38
2023-01-27T14:12:18.287Z,102781.06
2023-01-27T14:14:58.112Z,102775.03
2023-01-27T14:17:13.365Z,102784.44
2023-01-27T14:19:34.457Z,102783.75
2023-01-27T14:21:47.544Z,102785.00
2023-01-27T14:24:04.899Z,102779.13
2023-01-27T14:26:15.344Z,102783.31
2023-01-27T14:28:20.935Z,102782.50
2023-01-27T14:30:33.400Z,102787.19
2023-01-27T14:32:46.512Z,102783.03
2023-01-27T14:34:58.362Z,102783.81
2023-01-27T14:37:19.600Z,102781.88
2023-01-27T14:39:36.117Z,102785.06
2023-01-27T14:41:47.938Z,102780.91
2023-01-27T14:44:00.068Z,102790.41
2023-01-27T14:46:10.157Z,102793.06
2023-01-27T14:48:28.518Z,102790.72
2023-01-27T14:50:46.510Z,102793.22
2023-01-27T14:52:56.149Z,102794.19
2023-01-27T14:55:21.003Z,102795.72
2023-01-27T14:57:33.629Z,102796.34
2023-01-27T14:59:47.016Z,102801.56
2023-01-27T15:02:02.698Z,102806.78
2023-01-27T15:04:22.268Z,102809.44
2023-01-27T15:06:35.298Z,102800.69
2023-01-27T15:08:48.445Z,102808.00
2023-01-27T15:11:07.843Z,102813.16
2023-01-27T15:13:19.823Z,102815.97
2023-01-27T15:15:44.230Z,102805.88
2023-01-27T15:17:55.920Z,102813.94
2023-01-27T15:20:17.490Z,102818.38
2023-01-27T15:22:31.368Z,102810.88
2023-01-27T15:24:42.691Z,102817.69
2023-01-27T15:26:46.936Z,102825.56
2023-01-27T15:28:49.264Z,102825.81
2023-01-27T15:31:09.850Z,102821.16
2023-01-27T15:33:33.652Z,102818.38
2023-01-27T15:35:38.623Z,102820.94
2023-01-27T15:38:09.715Z,102821.50
2023-01-27T15:40:15.689Z,102821.28
2023-01-27T15:42:19.782Z,102825.34
2023-01-27T15:44:25.258Z,102821.44
2023-01-27T15:46:32.126Z,102822.72
2023-01-27T15:48:38.677Z,102824.31
2023-01-27T15:50:53.912Z,102829.44
2023-01-27T15:53:03.322Z,102828.31
2023-01-27T15:55:08.342Z,102831.75
2023-01-27T15:57:28.000Z,102824.22
2023-01-27T15:59:57.132Z,102831.22
2023-01-27T16:02:03.497Z,102828.03
2023-01-27T16:04:21.350Z,102826.06
2023-01-27T16:06:25.786Z,102822.31
2023-01-27T16:08:38.217Z,102824.13
2023-01-27T16:10:41.027Z,102825.53
2023-01-27T16:12:48.445Z,102820.75
2023-01-27T16:15:30.387Z,102816.13
2023-01-27T16:17:33.597Z,102824.53
2023-01-27T16:19:49.025Z,102817.44
2023-01-27T16:22:00.599Z,102824.47
2023-01-27T16:24:08.458Z,102823.81
2023-01-27T16:26:30.527Z,102821.81
2023-01-27T16:28:34.733Z,102827.03
2023-01-27T16:30:45.362Z,102823.56
2023-01-27T16:32:54.809Z,102829.69
2023-01-27T16:35:02.690Z,102823.66
2023-01-27T16:37:23.977Z,102816.66
2023-01-27T16:39:35.235Z,102817.34
2023-01-27T16:41:39.607Z,102812.91
2023-01-27T16:43:49.923Z,102813.28
2023-01-27T16:45:54.877Z,102817.28
2023-01-27T16:47:59.503Z,102825.78
2023-01-27T16:50:01.654Z,102831.63
2023-01-27T16:52:05.481Z,102832.31
2023-01-27T16:54:23.498Z,102839.03
2023-01-27T16:56:32.677Z,102847.53
2023-01-27T16:58:46.179Z,102850.72
2023-01-27T17:00:52.447Z,102850.50
2023-01-27T17:02:57.535Z,102860.75
2023-01-27T17:05:03.324Z,102859.69
2023-01-27T17:07:13.535Z,102861.59
2023-01-27T17:09:28.629Z,102871.94
2023-01-27T17:11:33.301Z,102873.22
2023-01-27T17:13:45.444Z,102875.63
2023-01-27T17:15:47.425Z,102871.28
2023-01-27T17:17:50.974Z,102882.34
2023-01-27T17:20:01.306Z,102881.84
2023-01-27T17:22:10.469Z,102875.81
2023-01-27T17:24:19.420Z,102876.69
2023-01-27T17:26:21.620Z,102883.25
2023-01-27T17:28:26.986Z,102888.28
2023-01-27T17:30:35.791Z,102884.69
2023-01-27T17:32:40.449Z,102885.72
2023-01-27T17:34:42.603Z,102888.06
2023-01-27T17:37:03.918Z,102898.03
2023-01-27T17:39:25.744Z,102899.00
2023-01-27T17:41:36.463Z,102902.66
2023-01-27T17:43:39.882Z,102905.63
2023-01-27T17:45:43.343Z,102910.53
2023-01-27T17:47:46.658Z,102911.03
2023-01-27T17:49:50.181Z,102910.16
2023-01-27T17:51:54.646Z,102915.28
2023-01-27T17:53:58.695Z,102919.44
2023-01-27T17:56:10.364Z,102917.75
2023-01-27T17:58:20.782Z,102923.78
2023-01-27T18:00:26.355Z,102925.53
2023-01-27T18:02:32.632Z,102922.78
2023-01-27T18:04:39.947Z,102928.00
2023-01-27T18:06:42.964Z,102920.00
2023-01-27T18:08:54.939Z,102912.91
2023-01-27T18:11:11.524Z,102923.94
2023-01-27T18:13:36.461Z,102921.94
2023-01-27T18:15:48.625Z,102928.19
2023-01-27T18:18:00.843Z,102918.50
2023-01-27T18:20:03.491Z,102918.31
2023-01-27T18:22:14.046Z,102924.53
2023-01-27T18:24:21.060Z,102930.34
2023-01-27T18:26:39.585Z,102927.88
2023-01-27T18:28:43.368Z,102920.97
2023-01-27T18:30:49.835Z,102933.69
2023-01-27T18:32:59.986Z,102931.72
2023-01-27T18:35:01.958Z,102929.25
2023-01-27T18:37:22.180Z,102932.50
2023-01-27T18:39:32.878Z,102922.63
2023-01-27T18:41:38.317Z,102926.19
2023-01-27T18:43:40.461Z,102930.22
2023-01-27T18:45:44.346Z,102935.91
2023-01-27T18:47:46.431Z,102938.56
2023-01-27T18:49:54.544Z,102937.09
2023-01-27T18:51:56.453Z,102936.97
2023-01-27T18:53:58.459Z,102939.22
2023-01-27T18:56:02.343Z,102935.63
2023-01-27T18:58:04.443Z,102939.22
2023-01-27T19:00:07.619Z,102938.25
2023-01-27T19:02:15.912Z,102936.97
2023-01-27T19:04:17.963Z,102941.09
2023-01-27T19:06:20.527Z,102943.25
2023-01-27T19:08:24.732Z,102941.78
2023-01-27T19:10:29.684Z,102933.00
2023-01-27T19:12:31.708Z,102943.66
2023-01-27T19:14:35.074Z,102938.00
2023-01-27T19:16:37.395Z,102936.56
2023-01-27T19:18:40.603Z,102936.56
2023-01-27T19:20:43.287Z,102937.34
2023-01-27T19:22:46.633Z,102950.16
2023-01-27T19:24:50.689Z,102939.91
2023-01-27T19:26:52.823Z,102935.44
2023-01-27T19:28:57.404Z,102942.38
2023-01-27T19:31:00.224Z,102947.06
2023-01-27T19:33:03.711Z,102956.88
2023-01-27T19:35:06.623Z,102950.63
2023-01-27T19:37:23.243Z,102948.16
2023-01-27T19:39:25.288Z,102949.28
2023-01-27T19:41:27.312Z,102956.00
2023-01-27T19:43:29.448Z,102947.75
2023-01-27T19:45:34.324Z,102943.53
2023-01-27T19:47:36.285Z,102949.44
2023-01-27T19:49:38.319Z,102937.97
2023-01-27T19:51:40.269Z,102950.78
2023-01-27T19:53:42.283Z,102951.56
2023-01-27T19:55:46.721Z,102952.34
2023-01-27T19:57:49.774Z,102949.16
2023-01-27T19:59:51.840Z,102946.69
2023-01-27T20:01:53.835Z,102946.38
2023-01-27T20:03:56.098Z,102942.25
2023-01-27T20:05:58.209Z,102939.69
2023-01-27T20:08:00.727Z,102937.38
2023-01-27T20:10:02.795Z,102935.69
2023-01-27T20:12:06.327Z,102940.03
2023-01-27T20:14:14.006Z,102944.94
2023-01-27T20:16:15.989Z,102934.91
2023-01-27T20:18:19.094Z,102939.38
2023-01-27T20:20:22.685Z,102945.16
2023-01-27T20:22:27.209Z,102945.16
2023-01-27T20:24:29.091Z,102952.44
2023-01-27T20:26:32.590Z,102956.66
2023-01-27T20:28:34.648Z,102954.75
2023-01-27T20:30:37.226Z,102956.66
2023-01-27T20:32:39.213Z,102956.56
2023-01-27T20:34:41.163Z,102955.78
2023-01-27T20:36:43.075Z,102955.53
2023-01-27T20:38:45.158Z,102965.78
2023-01-27T20:40:47.297Z,102969.91
2023-01-27T20:42:50.319Z,102961.25
2023-01-27T20:44:52.255Z,102965.47
2023-01-27T20:46:54.172Z,102970.50
2023-01-27T20:48:58.242Z,102973.06
2023-01-27T20:51:01.847Z,102969.59
2023-01-27T20:53:04.802Z,102975.50
2023-01-27T20:55:07.873Z,102982.03
2023-01-27T20:57:09.852Z,102973.84
2023-01-27T20:59:11.834Z,102979.16
2023-01-27T21:01:16.236Z,102981.63
2023-01-27T21:03:18.200Z,102984.63
2023-01-27T21:05:20.047Z,102981.50
2023-01-27T21:07:23.237Z,102977.03
2023-01-27T21:09:25.389Z,102981.84
2023-01-27T21:11:27.357Z,102978.81
2023-01-27T21:13:29.870Z,102982.06
2023-01-27T21:15:31.748Z,102983.41
2023-01-27T21:17:34.009Z,102982.53
2023-01-27T21:19:36.047Z,102982.63
2023-01-27T21:21:38.273Z,102988.84
2023-01-27T21:23:40.371Z,102979.50
2023-01-27T21:25:42.362Z,102978.50
2023-01-27T21:27:45.222Z,102968.50
2023-01-27T21:29:47.233Z,102969.50
2023-01-27T21:31:49.454Z,102979.53
2023-01-27T21:33:51.431Z,102976.84
2023-01-27T21:35:55.504Z,102972.16
2023-01-27T21:37:57.392Z,102974.06
2023-01-27T21:39:59.278Z,102977.28
2023-01-27T21:42:01.400Z,102972.41
2023-01-27T21:44:13.317Z,102962.28
2023-01-27T21:46:15.415Z,102960.63
2023-01-27T21:48:17.369Z,102960.25
2023-01-27T21:50:19.592Z,102967.94
2023-01-27T21:52:24.063Z,102968.19
2023-01-27T21:54:26.005Z,102958.59
2023-01-27T21:56:27.938Z,102964.38
2023-01-27T21:58:29.806Z,102965.94
2023-01-27T22:00:31.783Z,102966.84
2023-01-27T22:02:33.835Z,102966.72
2023-01-27T22:04:35.744Z,102961.41
2023-01-27T22:06:38.007Z,102963.28
2023-01-27T22:08:39.881Z,102959.28
2023-01-27T22:10:42.004Z,102958.28
2023-01-27T22:12:44.632Z,102951.50
2023-01-27T22:14:46.550Z,102951.72
2023-01-27T22:16:50.473Z,102964.16
2023-01-27T22:18:52.318Z,102968.63
2023-01-27T22:20:54.467Z,102962.63
2023-01-27T22:22:56.443Z,102960.06
2023-01-27T22:24:58.534Z,102955.25
2023-01-27T22:27:00.511Z,102962.38
2023-01-27T22:29:02.382Z,102961.38
2023-01-27T22:31:04.443Z,102965.94
2023-01-27T22:33:06.343Z,102962.38
2023-01-27T22:35:08.648Z,102958.38
2023-01-27T22:37:10.561Z,102959.28
2023-01-27T22:39:12.467Z,102954.06
2023-01-27T22:41:14.425Z,102951.91
2023-01-27T22:43:16.690Z,102953.69
2023-01-27T22:45:18.741Z,102945.50
2023-01-27T22:47:20.592Z,102949.16
2023-01-27T22:49:22.529Z,102945.03
2023-01-27T22:51:24.391Z,102944.13
2023-01-27T22:53:26.438Z,102947.03
2023-01-27T22:55:28.392Z,102940.38
2023-01-27T22:57:31.534Z,102943.81
2023-01-27T22:59:33.338Z,102945.50
2023-01-27T23:01:35.218Z,102942.94
2023-01-27T23:03:37.081Z,102950.16
2023-01-27T23:05:39.058Z,102945.50
2023-01-27T23:07:40.944Z,102949.03
2023-01-27T23:09:42.856Z,102947.16
2023-01-27T23:11:44.993Z,102957.50
2023-01-27T23:13:46.952Z,102952.38
2023-01-27T23:15:48.759Z,102952.28
2023-01-27T23:17:50.669Z,102960.16
2023-01-27T23:19:52.512Z,102955.81
2023-01-27T23:21:54.400Z,102963.25
2023-01-27T23:23:56.245Z,102961.06
2023-01-27T23:25:58.550Z,102961.06
2023-01-27T23:28:00.437Z,102958.72
2023-01-27T23:30:02.291Z,102962.03
2023-01-27T23:32:04.254Z,102947.69
2023-01-27T23:34:06.466Z,102950.34
2023-01-27T23:36:09.929Z,102951.03
2023-01-27T23:38:26.357Z,102948.72
2023-01-27T23:40:28.444Z,102957.03
2023-01-27T23:42:30.305Z,102947.06
2023-01-27T23:44:32.118Z,102954.84
2023-01-27T23:46:34.118Z,102953.06
2023-01-27T23:48:35.933Z,102952.16
2023-01-27T23:50:37.787Z,102959.16
2023-01-27T23:52:39.718Z,102949.94
2023-01-27T23:54:41.563Z,102954.47
2023-01-27T23:56:43.400Z,102956.81
2023-01-27T23:58:45.880Z,102951.72
